Time;durP1;ratioP1;P1;durP2;ratioP2;P2;SDS_P1;SDS_P2;PMS_P1;PMS_P2;Temp;Humidity;BMP_temperature;BMP_pressure;BME280_temperature;BME280_humidity;BME280_pressure;Samples;Min_cycle;Max_cycle;Signal;HPM_P1;HPM_P2
2022/07/20 00:00:53;;;;;;;9.80;2.80;;;25.20;47.20;;;;;;5005370;28;20126;-69
2022/07/20 00:03:19;;;;;;;12.00;3.35;;;25.20;47.10;;;;;;5022925;28;20060;-69
2022/07/20 00:05:46;;;;;;;10.70;3.10;;;25.10;47.10;;;;;;5003516;28;20584;-69
2022/07/20 00:08:12;;;;;;;13.68;3.22;;;25.10;47.10;;;;;;5002623;28;20052;-68
2022/07/20 00:13:24;;;;;;;10.52;3.30;;;25.00;47.20;;;;;;5020146;23;20053;-66
2022/07/20 00:15:50;;;;;;;9.50;3.00;;;24.90;47.20;;;;;;5000408;28;20061;-67
2022/07/20 00:18:17;;;;;;;9.23;2.75;;;24.90;47.30;;;;;;5004010;28;20045;-67
2022/07/20 00:20:44;;;;;;;9.80;3.25;;;24.90;47.40;;;;;;5001689;28;20060;-67
2022/07/20 00:23:10;;;;;;;8.20;2.75;;;24.90;47.50;;;;;;5012546;28;20108;-67
2022/07/20 00:25:36;;;;;;;12.88;2.95;;;24.80;47.50;;;;;;5016963;28;20049;-67
2022/07/20 00:28:02;;;;;;;9.93;3.22;;;24.80;47.60;;;;;;5020937;28;20479;-68
2022/07/20 00:30:29;;;;;;;9.52;3.15;;;24.70;47.70;;;;;;5026259;28;20045;-68
2022/07/20 00:32:55;;;;;;;11.50;3.03;;;24.70;47.70;;;;;;5023869;28;20052;-68
2022/07/20 00:35:21;;;;;;;9.70;3.38;;;24.70;47.80;;;;;;5023443;28;20053;-67
2022/07/20 00:37:47;;;;;;;9.20;3.20;;;24.60;47.80;;;;;;5026404;28;20073;-67
2022/07/20 00:40:14;;;;;;;10.00;3.03;;;24.50;47.80;;;;;;5031935;28;20068;-67
2022/07/20 00:42:41;;;;;;;9.38;3.03;;;24.50;48.10;;;;;;5030963;28;20056;-68
2022/07/20 00:45:09;;;;;;;9.15;3.45;;;24.50;48.10;;;;;;5020722;28;20049;-67
2022/07/20 00:47:35;;;;;;;10.55;3.20;;;24.40;48.20;;;;;;5021464;28;20042;-68
2022/07/20 00:50:01;;;;;;;8.63;3.00;;;24.40;48.30;;;;;;5008144;28;20049;-67
2022/07/20 00:52:27;;;;;;;11.48;3.28;;;24.40;48.50;;;;;;5023828;28;20064;-67
2022/07/20 00:54:54;;;;;;;12.88;3.10;;;24.30;48.60;;;;;;5022542;28;20049;-67
2022/07/20 00:57:21;;;;;;;16.13;3.30;;;24.30;48.90;;;;;;5029872;28;20054;-67
2022/07/20 00:59:47;;;;;;;10.10;3.33;;;24.20;48.80;;;;;;5020854;28;20049;-67
2022/07/20 01:02:13;;;;;;;9.93;3.08;;;24.10;49.00;;;;;;5023348;28;20057;-67
2022/07/20 01:04:39;;;;;;;13.27;3.30;;;24.00;49.00;;;;;;5009923;28;20057;-67
2022/07/20 01:07:06;;;;;;;8.20;3.10;;;24.00;49.20;;;;;;5016853;28;20045;-67
2022/07/20 01:09:32;;;;;;;7.63;2.85;;;24.00;50.20;;;;;;5024593;28;20045;-67
2022/07/20 01:11:58;;;;;;;8.27;3.17;;;23.90;49.60;;;;;;5025578;28;20049;-67
2022/07/20 01:14:25;;;;;;;8.23;3.25;;;23.90;49.80;;;;;;5027972;28;20608;-67
2022/07/20 01:16:51;;;;;;;10.35;3.10;;;23.80;49.90;;;;;;5027966;28;20060;-67
2022/07/20 01:19:17;;;;;;;10.63;3.20;;;23.70;50.00;;;;;;5029513;28;20103;-67
2022/07/20 01:21:43;;;;;;;8.75;2.80;;;23.70;50.00;;;;;;5025664;28;20057;-67
2022/07/20 01:24:11;;;;;;;9.70;3.03;;;23.70;50.10;;;;;;5029122;28;20061;-68
2022/07/20 01:26:40;;;;;;;9.00;2.95;;;23.60;50.10;;;;;;5030802;28;20575;-68
2022/07/20 01:29:09;;;;;;;10.65;3.25;;;23.60;50.10;;;;;;5033535;28;20053;-68
2022/07/20 01:31:36;;;;;;;10.82;3.55;;;23.60;50.40;;;;;;5033339;28;20063;-68
2022/07/20 01:34:03;;;;;;;10.48;3.28;;;23.50;50.50;;;;;;5034059;28;20056;-68
2022/07/20 01:36:29;;;;;;;10.35;3.53;;;23.50;50.60;;;;;;5033938;28;20057;-68
2022/07/20 01:38:56;;;;;;;10.65;3.17;;;23.40;50.70;;;;;;5027349;28;20056;-66
2022/07/20 01:41:22;;;;;;;10.70;4.00;;;23.40;50.80;;;;;;5033993;28;20514;-66
2022/07/20 01:43:48;;;;;;;11.05;3.08;;;23.40;50.90;;;;;;5032736;28;20050;-67
2022/07/20 01:46:14;;;;;;;10.07;3.03;;;23.30;51.10;;;;;;5030489;28;20057;-67
2022/07/20 01:48:41;;;;;;;9.18;3.10;;;23.30;51.20;;;;;;5029296;28;20060;-67
2022/07/20 01:51:07;;;;;;;9.60;3.30;;;23.20;51.20;;;;;;5030588;28;20050;-67
2022/07/20 01:53:34;;;;;;;10.32;3.40;;;23.20;51.30;;;;;;5030131;28;20037;-68
2022/07/20 01:56:00;;;;;;;10.52;3.45;;;23.10;51.40;;;;;;5031515;28;20037;-67
2022/07/20 01:58:26;;;;;;;10.07;3.40;;;23.10;51.50;;;;;;5031667;28;20399;-67
2022/07/20 02:00:52;;;;;;;10.80;3.20;;;23.10;51.60;;;;;;5023042;28;20060;-68
2022/07/20 02:03:19;;;;;;;16.05;3.35;;;23.10;51.60;;;;;;5028523;28;20052;-68
2022/07/20 02:05:45;;;;;;;9.38;3.30;;;23.00;51.60;;;;;;5051139;28;20303;-68
2022/07/20 02:08:11;;;;;;;12.95;3.70;;;23.00;51.80;;;;;;5040477;28;20057;-67
2022/07/20 02:10:37;;;;;;;9.23;3.30;;;23.00;51.90;;;;;;5025210;28;20052;-66
2022/07/20 02:13:04;;;;;;;10.13;3.60;;;22.90;51.90;;;;;;5033664;28;20335;-69
2022/07/20 02:18:15;;;;;;;10.82;3.20;;;22.80;51.90;;;;;;5045319;28;20041;-67
2022/07/20 02:20:41;;;;;;;10.90;3.38;;;22.80;51.90;;;;;;5047692;28;20057;-67
2022/07/20 02:23:09;;;;;;;10.43;3.05;;;22.80;51.90;;;;;;5047598;28;20071;-68
2022/07/20 02:25:36;;;;;;;12.05;3.60;;;22.80;52.00;;;;;;5045344;28;20044;-67
2022/07/20 02:28:04;;;;;;;11.70;3.33;;;22.80;52.20;;;;;;5036848;28;20060;-67
2022/07/20 02:30:30;;;;;;;12.55;3.50;;;22.80;52.20;;;;;;5028235;28;20052;-67
2022/07/20 02:32:56;;;;;;;12.52;3.53;;;22.70;52.20;;;;;;5047668;28;20368;-67
2022/07/20 02:35:23;;;;;;;10.45;3.30;;;22.70;52.30;;;;;;5046278;28;20064;-67
2022/07/20 02:37:49;;;;;;;9.32;3.38;;;22.70;52.50;;;;;;5046503;28;20060;-67
2022/07/20 02:40:15;;;;;;;12.40;3.47;;;22.70;52.60;;;;;;5048261;28;20059;-67
2022/07/20 02:42:42;;;;;;;9.93;3.70;;;22.70;52.70;;;;;;5045420;28;20401;-67
2022/07/20 02:45:08;;;;;;;13.10;3.50;;;22.60;52.70;;;;;;5042593;28;20041;-67
2022/07/20 02:47:46;;;;;;;10.18;3.10;;;22.60;52.80;;;;;;5043647;28;20067;-68
2022/07/20 02:50:12;;;;;;;10.80;3.63;;;22.60;53.00;;;;;;5044682;28;20044;-68
2022/07/20 02:52:40;;;;;;;11.65;3.60;;;22.50;53.00;;;;;;5019479;28;20056;-68
2022/07/20 02:55:07;;;;;;;9.32;3.75;;;22.50;52.90;;;;;;5045198;28;20394;-68
2022/07/20 02:57:33;;;;;;;8.55;3.47;;;22.50;53.00;;;;;;5047268;28;20049;-68
2022/07/20 02:59:59;;;;;;;8.95;3.50;;;22.50;53.20;;;;;;5042910;28;20057;-68
2022/07/20 03:02:25;;;;;;;11.15;3.97;;;22.50;53.20;;;;;;5036664;28;20052;-68
2022/07/20 03:04:52;;;;;;;11.75;3.65;;;22.40;53.20;;;;;;5026744;28;20328;-68
2022/07/20 03:07:18;;;;;;;10.15;3.22;;;22.50;53.30;;;;;;5045007;28;20052;-68
2022/07/20 03:09:44;;;;;;;8.27;3.60;;;22.40;53.30;;;;;;5045473;28;20461;-68
2022/07/20 03:12:10;;;;;;;12.95;3.55;;;22.40;53.30;;;;;;5044122;28;20510;-68
2022/07/20 03:14:36;;;;;;;13.13;3.58;;;22.40;53.20;;;;;;5044991;28;20053;-68
2022/07/20 03:17:03;;;;;;;12.10;3.55;;;22.40;53.40;;;;;;5023587;28;20406;-68
2022/07/20 03:19:29;;;;;;;9.52;3.13;;;22.30;53.50;;;;;;5027836;28;20092;-67
2022/07/20 03:21:55;;;;;;;10.60;3.50;;;22.40;53.70;;;;;;5042730;28;20061;-68
2022/07/20 03:24:21;;;;;;;9.35;3.58;;;22.30;53.50;;;;;;5050195;28;20029;-68
2022/07/20 03:26:48;;;;;;;9.23;3.65;;;22.30;53.60;;;;;;5045925;28;20114;-67
2022/07/20 03:29:14;;;;;;;11.80;3.60;;;22.30;53.80;;;;;;5054667;28;20040;-67
2022/07/20 03:31:40;;;;;;;11.77;3.78;;;22.30;53.90;;;;;;5042156;28;20048;-67
2022/07/20 03:34:07;;;;;;;11.63;3.83;;;22.20;54.00;;;;;;5033198;28;20116;-67
2022/07/20 03:36:33;;;;;;;10.30;3.47;;;22.20;54.10;;;;;;5023174;28;20056;-67
2022/07/20 03:38:59;;;;;;;14.13;3.88;;;22.20;54.00;;;;;;5039179;28;20048;-68
2022/07/20 03:41:25;;;;;;;11.35;3.67;;;22.20;54.20;;;;;;5037736;28;20053;-67
2022/07/20 03:43:51;;;;;;;10.02;3.42;;;22.20;54.30;;;;;;5043966;28;20041;-67
2022/07/20 03:46:18;;;;;;;11.68;3.53;;;22.10;54.30;;;;;;5015213;28;20425;-67
2022/07/20 03:48:44;;;;;;;11.68;3.58;;;22.10;54.50;;;;;;5043140;28;20053;-68
2022/07/20 03:51:12;;;;;;;10.27;3.72;;;22.10;54.60;;;;;;5050903;28;20067;-68
2022/07/20 03:53:38;;;;;;;13.27;3.33;;;22.00;54.60;;;;;;5031509;28;20053;-66
2022/07/20 03:56:04;;;;;;;11.45;4.00;;;22.00;54.80;;;;;;5056287;28;20402;-67
2022/07/20 03:58:30;;;;;;;9.50;3.60;;;22.00;54.80;;;;;;5048882;28;20406;-67
2022/07/20 04:00:56;;;;;;;10.52;3.60;;;22.00;54.90;;;;;;5049293;28;20055;-67
2022/07/20 04:03:22;;;;;;;10.02;3.53;;;22.00;54.90;;;;;;5048690;28;20045;-67
2022/07/20 04:05:49;;;;;;;9.25;3.63;;;22.10;54.90;;;;;;5047763;28;20044;-67
2022/07/20 04:08:15;;;;;;;11.40;3.65;;;22.10;54.90;;;;;;5048321;28;20072;-67
2022/07/20 04:10:41;;;;;;;9.05;3.60;;;22.10;54.80;;;;;;5048855;28;20053;-67
2022/07/20 04:13:07;;;;;;;10.15;3.97;;;22.10;55.50;;;;;;5048406;28;20049;-67
2022/07/20 04:15:33;;;;;;;9.90;3.60;;;22.10;54.90;;;;;;5049463;28;20049;-67
2022/07/20 04:17:59;;;;;;;11.38;3.60;;;22.10;55.00;;;;;;5054409;28;20037;-67
2022/07/20 04:20:25;;;;;;;12.40;4.07;;;22.20;55.00;;;;;;5049093;28;20084;-67
2022/07/20 04:22:51;;;;;;;11.18;4.10;;;22.20;55.00;;;;;;5048076;28;20061;-67
2022/07/20 04:25:19;;;;;;;8.30;3.70;;;22.20;55.10;;;;;;5048496;28;20056;-67
2022/07/20 04:27:45;;;;;;;9.60;3.70;;;22.20;55.00;;;;;;5047287;28;20421;-67
2022/07/20 04:30:12;;;;;;;12.80;3.80;;;22.30;55.00;;;;;;5047492;28;20060;-67
2022/07/20 04:32:38;;;;;;;14.25;3.58;;;22.30;55.10;;;;;;5032608;28;20045;-67
2022/07/20 04:35:05;;;;;;;10.38;3.33;;;22.40;55.00;;;;;;5048782;28;20049;-68
2022/07/20 04:37:31;;;;;;;9.27;3.50;;;22.40;55.00;;;;;;5046433;28;20060;-67
2022/07/20 04:39:57;;;;;;;11.65;3.70;;;22.40;55.10;;;;;;5029335;28;20045;-67
2022/07/20 04:42:23;;;;;;;11.20;3.63;;;22.50;55.00;;;;;;5030104;28;20040;-68
2022/07/20 04:44:49;;;;;;;11.73;3.90;;;22.50;55.00;;;;;;5030080;28;20049;-68
2022/07/20 04:47:15;;;;;;;10.05;3.47;;;22.60;54.90;;;;;;5029710;28;20064;-68
2022/07/20 04:49:41;;;;;;;11.65;4.13;;;22.60;54.80;;;;;;5048263;28;20052;-67
2022/07/20 04:52:08;;;;;;;10.18;3.85;;;22.60;54.80;;;;;;5017651;28;20041;-68
2022/07/20 04:54:38;;;;;;;9.72;3.55;;;22.70;54.80;;;;;;4312901;28;10001180;-67
2022/07/20 04:57:13;;;;;;;10.27;3.64;;;22.70;54.70;;;;;;4932789;28;10002471;-67
2022/07/20 04:59:39;;;;;;;10.30;3.70;;;22.80;54.70;;;;;;4518525;28;10001243;-67
2022/07/20 05:02:05;;;;;;;12.05;3.70;;;22.90;54.70;;;;;;4102294;28;10000404;-66
2022/07/20 05:04:31;;;;;;;11.65;3.63;;;22.90;54.60;;;;;;5038798;28;20060;-67
2022/07/20 05:06:57;;;;;;;10.70;3.80;;;22.90;54.50;;;;;;4984969;28;209534;-67
2022/07/20 05:09:23;;;;;;;8.77;3.67;;;23.00;54.50;;;;;;5038411;28;20064;-67
2022/07/20 05:11:49;;;;;;;9.82;3.63;;;23.10;54.40;;;;;;4996935;28;210853;-66
2022/07/20 05:14:16;;;;;;;12.52;4.20;;;23.20;54.60;;;;;;5042702;28;20049;-68
2022/07/20 05:16:42;;;;;;;11.70;3.90;;;23.20;54.70;;;;;;4991154;28;209089;-68
2022/07/20 05:19:09;;;;;;;9.15;3.35;;;23.20;54.60;;;;;;5040706;28;20041;-67
2022/07/20 05:21:35;;;;;;;9.80;3.60;;;23.30;54.40;;;;;;4998362;28;210593;-67
2022/07/20 05:24:01;;;;;;;10.15;3.78;;;23.40;54.50;;;;;;5047700;28;20041;-67
2022/07/20 05:26:27;;;;;;;10.32;4.00;;;23.40;54.50;;;;;;4989711;28;207396;-67
2022/07/20 05:28:53;;;;;;;14.25;3.60;;;23.50;54.40;;;;;;5046349;28;20052;-67
2022/07/20 05:31:19;;;;;;;9.95;3.88;;;23.60;54.20;;;;;;4991939;28;210887;-67
2022/07/20 05:33:46;;;;;;;15.20;4.40;;;23.60;54.20;;;;;;5008720;28;263607;-66
2022/07/20 05:36:12;;;;;;;13.68;3.88;;;23.70;54.30;;;;;;4999228;28;211004;-67
2022/07/20 05:38:38;;;;;;;14.25;3.90;;;23.80;54.30;;;;;;5026809;28;267197;-66
2022/07/20 05:41:05;;;;;;;8.40;3.58;;;23.80;54.20;;;;;;4997925;28;207161;-67
2022/07/20 05:43:31;;;;;;;12.75;3.97;;;23.90;54.10;;;;;;5025527;28;254330;-66
2022/07/20 05:45:57;;;;;;;9.90;4.03;;;24.00;53.90;;;;;;4998130;28;210388;-67
2022/07/20 05:48:23;;;;;;;10.32;3.53;;;24.10;54.70;;;;;;5014527;28;252383;-66
2022/07/20 05:50:49;;;;;;;14.23;4.13;;;24.10;53.90;;;;;;4992671;28;207249;-67
2022/07/20 05:53:15;;;;;;;13.95;3.55;;;24.30;53.60;;;;;;5014669;28;255380;-67
2022/07/20 05:55:42;;;;;;;10.80;3.78;;;24.40;53.60;;;;;;4980279;28;221341;-67
2022/07/20 05:58:10;;;;;;;12.93;3.90;;;24.40;53.30;;;;;;5033041;28;20051;-67
2022/07/20 06:00:37;;;;;;;11.88;3.92;;;24.50;53.20;;;;;;4966206;28;209677;-68
2022/07/20 06:03:04;;;;;;;9.90;3.80;;;24.70;53.30;;;;;;5049332;28;20060;-66
2022/07/20 06:05:31;;;;;;;15.43;3.80;;;24.70;53.30;;;;;;4954402;28;207710;-67
2022/07/20 06:08:00;;;;;;;14.05;4.03;;;24.90;52.90;;;;;;5018142;28;20521;-67
2022/07/20 06:10:28;;;;;;;13.27;3.95;;;25.20;52.60;;;;;;4992069;28;274118;-67
2022/07/20 06:12:57;;;;;;;11.88;4.00;;;25.50;52.20;;;;;;5037114;28;20434;-67
2022/07/20 06:15:25;;;;;;;11.40;4.03;;;25.70;52.30;;;;;;4988919;28;212784;-66
2022/07/20 06:17:53;;;;;;;18.20;4.18;;;25.90;52.00;;;;;;5020681;28;207148;-67
2022/07/20 06:20:20;;;;;;;12.40;4.00;;;26.10;52.20;;;;;;5016369;28;97157;-67
2022/07/20 06:22:47;;;;;;;9.65;3.88;;;26.20;51.90;;;;;;4990925;28;206890;-67
2022/07/20 06:25:15;;;;;;;10.50;3.40;;;26.40;51.60;;;;;;5022734;28;267703;-67
2022/07/20 06:27:42;;;;;;;12.50;4.07;;;26.60;51.10;;;;;;4990162;28;206487;-66
2022/07/20 06:30:11;;;;;;;10.90;3.80;;;26.70;51.20;;;;;;5018671;28;266760;-67
2022/07/20 06:32:38;;;;;;;16.17;3.95;;;26.80;50.70;;;;;;4983140;28;207211;-67
2022/07/20 06:35:05;;;;;;;11.48;3.63;;;27.00;50.80;;;;;;5019831;28;256394;-67
2022/07/20 06:37:31;;;;;;;13.77;4.18;;;27.10;50.70;;;;;;5000742;28;208085;-68
2022/07/20 06:39:57;;;;;;;9.40;3.50;;;27.30;50.40;;;;;;5027392;28;260208;-67
2022/07/20 06:42:23;;;;;;;12.77;3.70;;;27.40;50.20;;;;;;5004119;28;206977;-68
2022/07/20 06:44:50;;;;;;;12.77;4.00;;;27.60;49.90;;;;;;5023908;28;260841;-67
2022/07/20 06:47:16;;;;;;;9.45;3.80;;;27.80;49.40;;;;;;4995539;28;210896;-68
2022/07/20 06:49:44;;;;;;;12.27;3.67;;;27.80;48.30;;;;;;5020710;28;264039;-67
2022/07/20 06:52:10;;;;;;;10.70;4.10;;;27.70;48.80;;;;;;4996029;28;207630;-67
2022/07/20 06:54:37;;;;;;;12.55;4.22;;;27.80;48.50;;;;;;5028248;28;255367;-68
2022/07/20 06:57:03;;;;;;;11.13;3.80;;;27.90;48.70;;;;;;4993484;28;216261;-67
2022/07/20 06:59:29;;;;;;;11.70;4.25;;;28.10;48.60;;;;;;5026360;28;272281;-67
2022/07/20 07:01:56;;;;;;;14.10;4.40;;;28.20;48.60;;;;;;4998458;28;206992;-67
2022/07/20 07:04:22;;;;;;;9.95;4.10;;;28.30;49.40;;;;;;5009216;28;278484;-68
2022/07/20 07:06:48;;;;;;;13.02;4.30;;;28.40;48.20;;;;;;5000097;28;207776;-68
2022/07/20 07:09:15;;;;;;;13.07;4.65;;;28.50;48.30;;;;;;5035094;28;270724;-68
2022/07/20 07:11:42;;;;;;;14.30;4.65;;;28.60;48.50;;;;;;5002864;28;207129;-68
2022/07/20 07:14:08;;;;;;;15.60;4.80;;;28.70;48.50;;;;;;5024022;28;274910;-67
2022/07/20 07:16:34;;;;;;;12.52;4.70;;;28.70;48.20;;;;;;4989761;28;208842;-67
2022/07/20 07:19:00;;;;;;;13.18;4.95;;;28.80;48.30;;;;;;5020775;28;254330;-66
2022/07/20 07:21:26;;;;;;;14.05;5.00;;;29.00;48.50;;;;;;5002528;28;206773;-67
2022/07/20 07:23:52;;;;;;;12.07;4.95;;;29.00;49.20;;;;;;5023632;28;265820;-67
2022/07/20 07:26:20;;;;;;;11.13;4.85;;;29.10;49.20;;;;;;4978127;28;206765;-67
2022/07/20 07:28:47;;;;;;;15.52;5.70;;;29.20;49.50;;;;;;5000406;28;130215;-67
2022/07/20 07:31:15;;;;;;;15.23;5.45;;;29.30;49.60;;;;;;4968936;28;206389;-68
2022/07/20 07:33:41;;;;;;;13.10;5.55;;;29.40;49.50;;;;;;5008059;28;267580;-67
2022/07/20 07:36:07;;;;;;;12.07;5.80;;;29.50;50.00;;;;;;4981453;28;210302;-67
2022/07/20 07:38:33;;;;;;;13.40;6.03;;;29.60;50.20;;;;;;4993136;28;271736;-68
2022/07/20 07:41:00;;;;;;;16.70;6.20;;;29.70;50.80;;;;;;4993201;28;207928;-66
2022/07/20 07:43:26;;;;;;;18.08;6.55;;;29.80;50.20;;;;;;5005483;28;271973;-68
2022/07/20 07:45:52;;;;;;;14.25;6.05;;;29.70;50.40;;;;;;4992514;28;208742;-68
2022/07/20 07:48:18;;;;;;;17.00;6.40;;;29.90;50.80;;;;;;5014994;28;273998;-67
2022/07/20 07:50:44;;;;;;;14.57;5.93;;;30.10;50.90;;;;;;4990348;28;208873;-67
2022/07/20 07:53:11;;;;;;;16.98;6.70;;;30.30;50.90;;;;;;5035565;28;20056;-67
2022/07/20 07:55:38;;;;;;;16.60;6.28;;;30.50;51.00;;;;;;4988435;28;208056;-67
2022/07/20 07:58:06;;;;;;;21.10;7.05;;;30.50;51.00;;;;;;5023673;28;20049;-67
2022/07/20 08:00:33;;;;;;;11.52;6.35;;;30.60;51.10;;;;;;4972008;28;266366;-67
2022/07/20 08:02:59;;;;;;;18.00;8.48;;;30.80;51.60;;;;;;5033755;28;20375;-66
2022/07/20 08:05:26;;;;;;;21.08;9.00;;;31.00;52.00;;;;;;4947815;28;206871;-65
2022/07/20 08:07:52;;;;;;;25.45;9.60;;;31.00;52.50;;;;;;5032492;28;20041;-66
2022/07/20 08:10:19;;;;;;;20.42;10.20;;;31.10;52.90;;;;;;4993155;28;128075;-67
2022/07/20 08:12:45;;;;;;;22.88;10.60;;;31.10;53.30;;;;;;4989237;28;207662;-67
2022/07/20 08:15:11;;;;;;;21.17;11.30;;;31.10;53.40;;;;;;5017657;28;265225;-68
2022/07/20 08:17:38;;;;;;;22.02;11.55;;;31.00;53.90;;;;;;4991702;28;206747;-68
2022/07/20 08:20:06;;;;;;;22.55;11.60;;;30.80;54.40;;;;;;5021438;28;261717;-68
2022/07/20 08:22:35;;;;;;;19.35;12.05;;;30.90;55.00;;;;;;4988302;28;209675;-68
2022/07/20 08:25:02;;;;;;;22.92;12.98;;;31.00;55.30;;;;;;5016214;28;245791;-67
2022/07/20 08:27:28;;;;;;;20.65;12.68;;;30.80;55.90;;;;;;4983330;28;212281;-69
2022/07/20 08:29:58;;;;;;;20.83;12.65;;;30.80;56.50;;;;;;5012467;28;258513;-67
2022/07/20 08:32:25;;;;;;;22.27;13.35;;;30.80;56.90;;;;;;4984814;28;206907;-68
2022/07/20 08:34:51;;;;;;;22.20;14.05;;;31.00;56.90;;;;;;5015665;28;248740;-68
2022/07/20 08:37:17;;;;;;;21.73;14.25;;;31.10;57.30;;;;;;4987023;28;239118;-67
2022/07/20 08:39:43;;;;;;;23.80;14.77;;;31.20;57.70;;;;;;5018139;28;259976;-66
2022/07/20 08:42:11;;;;;;;26.75;15.57;;;31.30;57.60;;;;;;4977933;28;207451;-67
2022/07/20 08:44:40;;;;;;;28.10;14.93;;;31.40;57.70;;;;;;5018993;28;254034;-67
2022/07/20 08:47:10;;;;;;;23.33;15.02;;;30.90;58.50;;;;;;4975662;28;207039;-67
2022/07/20 08:49:38;;;;;;;25.52;15.45;;;30.90;59.20;;;;;;5014749;28;257670;-67
2022/07/20 08:52:04;;;;;;;23.58;15.02;;;30.80;58.80;;;;;;4974586;28;210310;-67
2022/07/20 08:54:32;;;;;;;33.45;15.80;;;31.00;59.10;;;;;;5020551;28;262855;-68
2022/07/20 08:56:58;;;;;;;23.38;14.90;;;31.20;59.30;;;;;;4996128;28;207914;-67
2022/07/20 08:59:24;;;;;;;21.95;15.02;;;31.30;58.60;;;;;;5030160;28;271462;-66
2022/07/20 09:02:01;;;;;;;24.52;15.70;;;31.50;58.50;;;;;;4996460;28;209305;-66
2022/07/20 09:04:28;;;;;;;23.90;15.02;;;31.20;58.30;;;;;;5010165;28;261596;-67
2022/07/20 09:06:54;;;;;;;23.30;14.55;;;31.20;58.50;;;;;;4986616;28;207148;-68
2022/07/20 09:09:21;;;;;;;24.98;14.57;;;30.80;59.00;;;;;;5002859;28;226559;-67
2022/07/20 09:11:48;;;;;;;25.85;15.10;;;30.70;59.00;;;;;;4999552;28;206950;-68
2022/07/20 09:14:37;;;;;;;25.48;14.75;;;30.70;60.50;;;;;;5020933;28;262619;-67
2022/07/20 09:17:18;;;;;;;22.08;15.05;;;31.00;60.00;;;;;;4986292;28;209918;-68
2022/07/20 09:20:06;;;;;;;23.67;15.90;;;31.20;59.20;;;;;;5021498;28;261596;-67
2022/07/20 09:22:36;;;;;;;23.33;15.30;;;31.20;58.50;;;;;;4991529;28;209583;-67
2022/07/20 09:25:11;;;;;;;23.05;15.13;;;31.20;58.50;;;;;;5024105;28;252862;-68
2022/07/20 09:27:39;;;;;;;26.85;15.32;;;31.30;58.80;;;;;;4974591;28;206584;-67
2022/07/20 09:30:10;;;;;;;27.50;15.90;;;31.20;57.90;;;;;;5025101;28;261050;-68
2022/07/20 09:33:00;;;;;;;23.13;15.38;;;31.20;58.00;;;;;;4972977;28;206546;-70
2022/07/20 09:35:28;;;;;;;;;;;31.20;57.60;;;;;;4976003;28;255609;-68
2022/07/20 09:38:01;;;;;;;26.85;16.35;;;30.70;58.80;;;;;;5023256;28;19916;-69
2022/07/20 09:40:27;;;;;;;31.13;17.63;;;30.70;58.30;;;;;;4970229;28;207637;-67
2022/07/20 09:42:54;;;;;;;26.38;16.65;;;30.80;58.30;;;;;;5028656;28;20068;-70
2022/07/20 09:45:27;;;;;;;23.17;16.75;;;31.00;58.10;;;;;;5009133;28;101755;-70
2022/07/20 09:48:11;;;;;;;27.67;16.45;;;31.20;56.80;;;;;;4982214;28;200393;-69
2022/07/20 09:50:44;;;;;;;25.13;16.17;;;31.30;56.70;;;;;;4961439;28;209745;-70
2022/07/20 09:53:11;;;;;;;24.48;16.35;;;31.40;56.60;;;;;;5039984;28;20550;-69
2022/07/20 09:55:39;;;;;;;26.40;16.60;;;31.40;56.70;;;;;;4935292;28;218991;-69
2022/07/20 09:58:06;;;;;;;22.63;15.75;;;31.20;56.70;;;;;;5033656;28;20045;-69
2022/07/20 10:00:34;;;;;;;28.45;16.27;;;31.50;56.00;;;;;;4969887;28;256531;-69
2022/07/20 10:03:02;;;;;;;23.70;15.02;;;31.60;55.40;;;;;;5009474;28;20387;-69
2022/07/20 10:05:31;;;;;;;22.23;14.82;;;31.50;55.20;;;;;;4952998;28;259331;-68
2022/07/20 10:08:02;;;;;;;23.23;14.05;;;31.60;54.80;;;;;;5041164;28;20049;-69
2022/07/20 10:10:29;;;;;;;22.00;13.60;;;31.80;55.40;;;;;;4966543;28;264369;-69
2022/07/20 10:12:56;;;;;;;19.42;12.90;;;31.80;54.20;;;;;;5011554;28;20063;-69
2022/07/20 10:15:31;;;;;;;19.42;12.20;;;31.70;53.00;;;;;;4987064;28;261815;-70
2022/07/20 10:17:57;;;;;;;20.08;11.93;;;31.40;52.40;;;;;;5015979;28;206204;-69
2022/07/20 10:20:35;;;;;;;19.52;11.55;;;31.20;52.80;;;;;;5001836;28;271050;-67
2022/07/20 10:23:14;;;;;;;19.17;12.18;;;31.20;52.80;;;;;;5034767;28;207955;-69
2022/07/20 10:25:45;;;;;;;18.05;10.85;;;31.70;52.20;;;;;;4968413;28;207912;-68
2022/07/20 10:28:26;;;;;;;19.77;11.55;;;32.10;51.90;;;;;;5039749;28;20449;-70
2022/07/20 10:30:53;;;;;;;20.75;11.27;;;32.40;51.40;;;;;;4966413;28;207624;-69
2022/07/20 10:33:21;;;;;;;17.77;10.55;;;32.20;51.50;;;;;;5026705;28;269290;-68
2022/07/20 10:35:49;;;;;;;16.48;9.50;;;32.10;50.80;;;;;;4982213;28;207761;-70
2022/07/20 10:38:19;;;;;;;15.13;9.10;;;32.30;51.30;;;;;;5023829;28;264437;-67
2022/07/20 10:41:33;;;;;;;20.30;9.38;;;32.60;49.20;;;;;;4999282;28;207598;-68
2022/07/20 10:44:19;;;;;;;17.90;8.95;;;32.60;49.50;;;;;;4933709;28;174227;-68
2022/07/20 10:46:49;;;;;;;18.80;8.65;;;32.10;49.50;;;;;;4892947;28;208383;-69
2022/07/20 10:49:16;;;;;;;13.63;8.52;;;32.20;50.60;;;;;;4932321;28;20055;-70
2022/07/20 10:51:43;;;;;;;21.08;8.70;;;32.40;50.20;;;;;;4897975;28;206813;-69
2022/07/20 10:54:34;;;;;;;17.17;8.88;;;32.20;50.00;;;;;;4935249;28;198367;-69
2022/07/20 10:57:01;;;;;;;17.15;8.63;;;32.30;50.10;;;;;;4888002;29;206251;-68
2022/07/20 10:59:28;;;;;;;17.38;8.73;;;32.30;51.10;;;;;;4915847;29;20047;-69
2022/07/20 11:01:55;;;;;;;17.25;7.90;;;32.80;51.50;;;;;;4888410;28;212604;-69
2022/07/20 11:04:21;;;;;;;19.10;8.55;;;33.30;50.40;;;;;;4908762;28;238659;-69
2022/07/20 11:06:49;;;;;;;18.23;8.38;;;33.40;50.50;;;;;;4881397;29;142847;-69
2022/07/20 11:09:15;;;;;;;15.82;8.38;;;33.30;50.40;;;;;;4938812;28;29823;-69
2022/07/20 11:11:43;;;;;;;18.58;8.23;;;33.30;50.10;;;;;;4883776;29;206998;-70
2022/07/20 11:14:10;;;;;;;14.55;7.47;;;33.40;49.40;;;;;;4927055;28;238339;-70
2022/07/20 11:16:38;;;;;;;17.30;7.10;;;33.60;49.20;;;;;;4894056;28;206693;-70
2022/07/20 11:19:06;;;;;;;15.20;7.78;;;33.50;48.80;;;;;;4913874;28;59275;-70
2022/07/20 11:21:38;;;;;;;16.90;7.90;;;33.60;49.70;;;;;;4967752;28;218731;-68
2022/07/20 11:24:19;;;;;;;18.40;8.05;;;33.70;49.20;;;;;;5012422;28;105875;-69
2022/07/20 11:26:45;;;;;;;13.98;7.47;;;33.40;48.70;;;;;;4979866;28;208780;-69
2022/07/20 11:29:14;;;;;;;15.45;7.72;;;33.50;49.10;;;;;;5017366;28;265512;-69
2022/07/20 11:31:40;;;;;;;16.95;7.90;;;33.50;49.30;;;;;;4991608;28;208598;-69
2022/07/20 11:34:06;;;;;;;15.00;7.68;;;33.60;49.30;;;;;;5015049;28;276456;-69
2022/07/20 11:36:36;;;;;;;16.52;7.95;;;33.70;49.10;;;;;;4990776;28;209290;-69
2022/07/20 11:39:07;;;;;;;;;;;33.90;48.30;;;;;;5024930;28;253957;-69
2022/07/20 11:41:41;;;;;;;14.88;8.93;;;33.60;48.40;;;;;;4990646;28;207095;-68
2022/07/20 11:44:15;;;;;;;14.68;7.85;;;33.40;49.00;;;;;;5020616;28;271825;-68
2022/07/20 11:46:43;;;;;;;14.80;7.78;;;33.30;49.00;;;;;;4990785;28;208847;-69
2022/07/20 11:49:14;;;;;;;14.80;7.30;;;33.70;49.00;;;;;;5025179;28;266331;-68
2022/07/20 11:51:51;;;;;;;14.75;7.43;;;34.00;48.40;;;;;;4982270;28;207709;-68
2022/07/20 11:54:22;;;;;;;14.80;7.30;;;34.00;48.40;;;;;;5006839;28;20060;-69
2022/07/20 11:56:50;;;;;;;14.55;7.45;;;34.30;47.80;;;;;;4991634;28;206906;-68
2022/07/20 11:59:16;;;;;;;15.35;6.93;;;34.40;47.70;;;;;;5016000;28;268168;-69
2022/07/20 12:01:43;;;;;;;14.70;7.15;;;34.70;47.30;;;;;;4984748;28;209142;-68
2022/07/20 12:04:13;;;;;;;13.70;6.60;;;34.80;46.70;;;;;;4980484;28;186623;-68
2022/07/20 12:06:41;;;;;;;13.48;6.47;;;34.80;46.40;;;;;;4979553;28;207335;-68
2022/07/20 12:09:16;;;;;;;15.45;6.47;;;34.90;46.40;;;;;;5023316;28;269720;-69
2022/07/20 12:11:58;;;;;;;14.20;6.60;;;34.80;46.40;;;;;;4982970;28;208308;-68
2022/07/20 12:14:29;;;;;;;13.90;6.45;;;34.70;46.70;;;;;;5015092;28;91455;-68
2022/07/20 12:16:56;;;;;;;12.57;6.07;;;34.70;46.40;;;;;;4988716;28;207585;-68
2022/07/20 12:19:23;;;;;;;17.63;6.47;;;35.10;45.40;;;;;;5025931;28;269248;-68
2022/07/20 12:21:50;;;;;;;14.65;5.88;;;34.80;44.80;;;;;;4997694;28;208390;-67
2022/07/20 12:24:16;;;;;;;12.57;6.03;;;34.70;44.70;;;;;;5023419;28;271489;-68
2022/07/20 12:26:43;;;;;;;13.52;6.07;;;34.80;44.90;;;;;;4985441;28;208090;-69
2022/07/20 12:29:26;;;;;;;13.52;6.68;;;34.90;44.50;;;;;;5011194;28;272698;-68
2022/07/20 12:32:04;;;;;;;11.73;5.60;;;34.90;43.30;;;;;;4972556;28;114679;-68
2022/07/20 12:34:47;;;;;;;13.88;6.00;;;35.00;43.00;;;;;;5020038;23;260875;-68
2022/07/20 12:37:13;;;;;;;11.57;5.97;;;34.80;43.80;;;;;;4952178;28;210268;-69
2022/07/20 12:39:42;;;;;;;13.05;6.50;;;34.40;43.80;;;;;;5000619;28;261321;-68